Terminal Aerodrome Forecast
Issued by NWS

Home | Current Version | Previous Version | Text Only | Print | Product List | Glossary On
Versions: 1 2 3 4 5 6 7 8 9 10 11 12 13 14 15 16 17 18 19
000
FTAK31 PAFA 180540
TAFAFA
TAF
PAFA 180540Z 1806/1912 VRB03KT 6SM BR SCT002 SCT070
     FM180900 00000KT 4SM BR SCT001
     FM181200 00000KT 1SM BR SCT002
     FM181400 00000KT 1/2SM FZFG VV002
     FM182200 VRB03KT 3SM BR SCT002 BKN150=

USA.gov is the U.S. government's official web portal to all federal, state and local government web resources and services.